Time;durP1;ratioP1;P1;durP2;ratioP2;P2;SDS_P1;SDS_P2;PMS_P1;PMS_P2;Temp;Humidity;BMP_temperature;BMP_pressure;BME280_temperature;BME280_humidity;BME280_pressure;Samples;Min_cycle;Max_cycle;Signal;HPM_P1;HPM_P2
2021/07/13 00:02:24;;;;;;;3.30;2.20;;;;;;;;;;5018072;28;20482;-81
2021/07/13 00:04:50;;;;;;;3.65;2.38;;;;;;;;;;5014655;28;20032;-82
2021/07/13 00:07:15;;;;;;;3.40;2.20;;;;;;;;;;5018215;28;20223;-81
2021/07/13 00:09:41;;;;;;;4.30;2.47;;;;;;;;;;5018315;28;20364;-81
2021/07/13 00:12:07;;;;;;;3.25;1.88;;;;;;;;;;5034864;28;20036;-81
2021/07/13 00:14:32;;;;;;;5.50;2.60;;;;;;;;;;5035051;28;20107;-81
2021/07/13 00:16:58;;;;;;;3.15;2.25;;;;;;;;;;5034884;28;20390;-81
2021/07/13 00:19:25;;;;;;;3.47;2.13;;;;;;;;;;5050960;28;20040;-81
2021/07/13 00:21:50;;;;;;;5.43;2.50;;;;;;;;;;5018332;28;20033;-80
2021/07/13 00:24:16;;;;;;;2.85;1.85;;;;;;;;;;5017135;28;20036;-80
2021/07/13 00:26:42;;;;;;;3.88;1.75;;;;;;;;;;5035136;28;20063;-80
2021/07/13 00:29:07;;;;;;;3.70;2.13;;;;;;;;;;5014790;28;20033;-80
2021/07/13 00:31:33;;;;;;;4.15;2.22;;;;;;;;;;5017770;28;20043;-80
2021/07/13 00:34:00;;;;;;;4.25;2.08;;;;;;;;;;5034510;28;20121;-80
2021/07/13 00:36:25;;;;;;;3.53;1.80;;;;;;;;;;5017926;28;20064;-80
2021/07/13 00:38:51;;;;;;;4.13;1.90;;;;;;;;;;5001409;28;20045;-80
2021/07/13 00:41:16;;;;;;;3.40;2.15;;;;;;;;;;5034051;28;20033;-80
2021/07/13 00:43:42;;;;;;;6.25;2.65;;;;;;;;;;5034374;28;20024;-80
2021/07/13 00:46:07;;;;;;;3.28;2.30;;;;;;;;;;5017967;28;20033;-80
2021/07/13 00:48:33;;;;;;;3.55;2.25;;;;;;;;;;5017390;28;20029;-80
2021/07/13 00:50:59;;;;;;;4.15;2.28;;;;;;;;;;5017733;28;20067;-80
2021/07/13 00:53:25;;;;;;;3.15;2.33;;;;;;;;;;5017621;28;20056;-81
2021/07/13 00:55:50;;;;;;;3.47;2.13;;;;;;;;;;5033379;28;20130;-81
2021/07/13 00:58:16;;;;;;;3.40;2.03;;;;;;;;;;5005056;28;20025;-80
2021/07/13 01:00:41;;;;;;;3.58;2.20;;;;;;;;;;5016935;28;20490;-81
2021/07/13 01:03:07;;;;;;;3.70;1.98;;;;;;;;;;5033686;28;20025;-80
2021/07/13 01:05:38;;;;;;;3.20;1.90;;;;;;;;;;5016975;28;20083;-80
2021/07/13 01:08:36;;;;;;;2.28;1.73;;;;;;;;;;5018112;28;20526;-80
2021/07/13 01:11:23;;;;;;;3.85;1.95;;;;;;;;;;5019913;28;20043;-81
2021/07/13 01:14:08;;;;;;;3.50;2.22;;;;;;;;;;5032439;28;20037;-80
2021/07/13 01:16:45;;;;;;;3.35;2.22;;;;;;;;;;5016525;28;20036;-81
2021/07/13 01:19:37;;;;;;;3.45;2.15;;;;;;;;;;5017893;28;20127;-81
2021/07/13 01:22:21;;;;;;;3.05;2.10;;;;;;;;;;5030279;28;20044;-80
2021/07/13 01:25:07;;;;;;;2.92;1.90;;;;;;;;;;5031254;28;20041;-80
2021/07/13 01:27:48;;;;;;;3.17;2.15;;;;;;;;;;5017263;28;20079;-81
2021/07/13 01:30:25;;;;;;;2.95;1.73;;;;;;;;;;5033594;28;20021;-80
2021/07/13 01:33:00;;;;;;;3.58;1.83;;;;;;;;;;5016891;28;20032;-80
2021/07/13 01:35:31;;;;;;;2.97;1.92;;;;;;;;;;5018034;28;20029;-80
2021/07/13 01:37:58;;;;;;;3.30;1.73;;;;;;;;;;5016279;28;20029;-80
2021/07/13 01:40:23;;;;;;;4.57;2.05;;;;;;;;;;5016926;28;20025;-80
2021/07/13 01:42:48;;;;;;;4.68;1.90;;;;;;;;;;5016815;28;20490;-80
2021/07/13 01:45:14;;;;;;;2.97;1.83;;;;;;;;;;5016496;28;20028;-80
2021/07/13 01:47:40;;;;;;;3.83;1.75;;;;;;;;;;5016617;28;20037;-81
2021/07/13 01:50:09;;;;;;;4.68;2.33;;;;;;;;;;5016950;28;20025;-81
2021/07/13 01:52:35;;;;;;;3.00;2.15;;;;;;;;;;5021752;28;20049;-81
2021/07/13 01:55:01;;;;;;;3.90;1.88;;;;;;;;;;5016618;28;20037;-81
2021/07/13 01:57:27;;;;;;;5.90;2.33;;;;;;;;;;5033290;28;20068;-81
2021/07/13 01:59:53;;;;;;;4.35;1.95;;;;;;;;;;5014913;28;20226;-81
2021/07/13 02:02:18;;;;;;;2.80;2.00;;;;;;;;;;5016788;28;20115;-81
2021/07/13 02:04:43;;;;;;;4.28;2.13;;;;;;;;;;5016218;28;20036;-80
2021/07/13 02:07:09;;;;;;;4.00;2.00;;;;;;;;;;5025013;28;20032;-81
2021/07/13 02:09:35;;;;;;;4.68;2.15;;;;;;;;;;5016422;28;20162;-81
2021/07/13 02:12:02;;;;;;;5.35;2.72;;;;;;;;;;5016395;28;20064;-81
2021/07/13 02:14:27;;;;;;;3.22;2.47;;;;;;;;;;5032819;28;20025;-81
2021/07/13 02:16:53;;;;;;;3.50;2.15;;;;;;;;;;5031174;28;20090;-81
2021/07/13 02:19:18;;;;;;;3.58;2.10;;;;;;;;;;5016900;28;20037;-81
2021/07/13 02:21:44;;;;;;;3.75;1.98;;;;;;;;;;5021324;28;20037;-81
2021/07/13 02:24:10;;;;;;;4.38;1.98;;;;;;;;;;5016136;28;20116;-81
2021/07/13 02:26:44;;;;;;;3.58;2.17;;;;;;;;;;5000050;28;20051;-81
2021/07/13 02:29:36;;;;;;;3.53;2.50;;;;;;;;;;5033071;28;20078;-81
2021/07/13 02:32:15;;;;;;;3.88;2.22;;;;;;;;;;5017800;28;20043;-81
2021/07/13 02:34:41;;;;;;;4.28;2.30;;;;;;;;;;5033677;28;20112;-81
2021/07/13 02:37:07;;;;;;;2.80;2.00;;;;;;;;;;5000315;28;20025;-81
2021/07/13 02:39:33;;;;;;;2.90;2.28;;;;;;;;;;5015881;28;20486;-81
2021/07/13 02:41:59;;;;;;;5.85;2.47;;;;;;;;;;5033012;28;20025;-81
2021/07/13 02:44:26;;;;;;;3.63;2.17;;;;;;;;;;5032527;28;20110;-81
2021/07/13 02:46:52;;;;;;;5.30;2.85;;;;;;;;;;5015738;28;20041;-83
2021/07/13 02:49:26;;;;;;;4.80;2.60;;;;;;;;;;5017833;28;20047;-83
2021/07/13 02:51:58;;;;;;;6.65;2.28;;;;;;;;;;5020329;28;20110;-83
2021/07/13 02:54:24;;;;;;;3.40;2.00;;;;;;;;;;5019744;28;20025;-83
2021/07/13 02:56:50;;;;;;;3.85;2.00;;;;;;;;;;5004012;28;20120;-83
2021/07/13 02:59:22;;;;;;;3.33;2.00;;;;;;;;;;5011701;28;20479;-83
2021/07/13 03:01:48;;;;;;;4.47;2.53;;;;;;;;;;5019770;28;20526;-83
2021/07/13 03:04:15;;;;;;;3.85;2.35;;;;;;;;;;5017749;28;20037;-83
2021/07/13 03:06:40;;;;;;;4.80;2.03;;;;;;;;;;5020353;28;20037;-83
2021/07/13 03:09:06;;;;;;;3.63;2.42;;;;;;;;;;5019023;28;20116;-83
2021/07/13 03:11:33;;;;;;;4.60;2.20;;;;;;;;;;5035898;28;20039;-83
2021/07/13 03:14:00;;;;;;;4.35;2.75;;;;;;;;;;5019514;28;20115;-83
2021/07/13 03:16:25;;;;;;;2.85;1.95;;;;;;;;;;5019364;28;20040;-83
2021/07/13 03:18:51;;;;;;;3.50;2.17;;;;;;;;;;5019429;28;20041;-83
2021/07/13 03:21:22;;;;;;;3.60;2.00;;;;;;;;;;5035724;28;20037;-83
2021/07/13 03:23:48;;;;;;;4.38;2.25;;;;;;;;;;5021162;28;20029;-83
2021/07/13 03:26:13;;;;;;;4.95;2.55;;;;;;;;;;5019456;28;20111;-83
2021/07/13 03:28:39;;;;;;;3.95;2.22;;;;;;;;;;5035380;28;20025;-83
2021/07/13 03:31:04;;;;;;;4.35;2.38;;;;;;;;;;5019621;28;20032;-83
2021/07/13 03:33:29;;;;;;;4.78;2.08;;;;;;;;;;5019016;28;20056;-83
2021/07/13 03:35:56;;;;;;;4.18;2.00;;;;;;;;;;5019514;28;20051;-83
2021/07/13 03:38:21;;;;;;;2.78;1.73;;;;;;;;;;5013543;28;20053;-83
2021/07/13 03:40:48;;;;;;;5.50;2.60;;;;;;;;;;5017883;28;20036;-83
2021/07/13 03:43:14;;;;;;;3.97;2.28;;;;;;;;;;5015351;28;20046;-83
2021/07/13 03:45:40;;;;;;;4.05;2.03;;;;;;;;;;5002653;28;20036;-83
2021/07/13 03:48:06;;;;;;;3.28;2.00;;;;;;;;;;5019188;28;20045;-83
2021/07/13 03:50:33;;;;;;;3.25;2.50;;;;;;;;;;5012779;28;20533;-83
2021/07/13 03:52:59;;;;;;;3.65;2.00;;;;;;;;;;5018971;28;20116;-83
2021/07/13 03:55:24;;;;;;;3.97;2.45;;;;;;;;;;5014140;28;20059;-83
2021/07/13 03:57:52;;;;;;;3.70;2.33;;;;;;;;;;5018374;28;20029;-83
2021/07/13 04:00:19;;;;;;;3.58;1.75;;;;;;;;;;5018485;28;20116;-83
2021/07/13 04:02:44;;;;;;;3.30;2.05;;;;;;;;;;5018288;28;20029;-83
2021/07/13 04:05:10;;;;;;;3.33;2.30;;;;;;;;;;5018538;28;20033;-83
2021/07/13 04:07:36;;;;;;;3.97;2.10;;;;;;;;;;5018102;28;20213;-83
2021/07/13 04:10:03;;;;;;;3.90;2.28;;;;;;;;;;5002204;28;20552;-84
2021/07/13 04:12:30;;;;;;;4.00;2.10;;;;;;;;;;5035012;28;20044;-83
2021/07/13 04:14:55;;;;;;;2.92;2.28;;;;;;;;;;5051318;28;20037;-83
2021/07/13 04:17:21;;;;;;;4.40;2.03;;;;;;;;;;5035165;28;20233;-83
2021/07/13 04:19:47;;;;;;;3.47;2.40;;;;;;;;;;5005504;28;20044;-83
2021/07/13 04:22:12;;;;;;;3.22;2.05;;;;;;;;;;5018263;28;20020;-83
2021/07/13 04:24:38;;;;;;;3.63;1.88;;;;;;;;;;5013107;28;20063;-83
2021/07/13 04:27:03;;;;;;;5.28;2.45;;;;;;;;;;5018130;28;20040;-83
2021/07/13 04:29:29;;;;;;;3.03;2.17;;;;;;;;;;5018322;28;20029;-83
2021/07/13 04:31:55;;;;;;;3.42;2.20;;;;;;;;;;5021701;28;20121;-83
2021/07/13 04:34:21;;;;;;;4.13;2.00;;;;;;;;;;5017864;28;20045;-83
2021/07/13 04:36:47;;;;;;;3.58;2.10;;;;;;;;;;5018028;28;20059;-83
2021/07/13 04:39:12;;;;;;;3.85;2.20;;;;;;;;;;5017093;28;20120;-83
2021/07/13 04:41:38;;;;;;;3.30;1.92;;;;;;;;;;5034647;28;20025;-83
2021/07/13 04:44:04;;;;;;;3.85;2.38;;;;;;;;;;5034714;28;20044;-83
2021/07/13 04:46:30;;;;;;;4.60;2.10;;;;;;;;;;5017482;28;20037;-83
2021/07/13 04:48:55;;;;;;;3.53;2.50;;;;;;;;;;5018028;28;20033;-83
2021/07/13 04:51:22;;;;;;;3.15;2.10;;;;;;;;;;5018009;28;20040;-83
2021/07/13 04:53:47;;;;;;;3.13;2.20;;;;;;;;;;5017350;28;20035;-83
2021/07/13 04:56:13;;;;;;;3.53;1.85;;;;;;;;;;5014062;28;20028;-83
2021/07/13 04:58:39;;;;;;;3.65;2.28;;;;;;;;;;5017585;28;20102;-83
2021/07/13 05:01:05;;;;;;;3.65;2.33;;;;;;;;;;5017647;28;20104;-83
2021/07/13 05:03:31;;;;;;;5.28;2.10;;;;;;;;;;5002528;28;20039;-83
2021/07/13 05:05:56;;;;;;;3.78;2.58;;;;;;;;;;5017705;28;20051;-83
2021/07/13 05:08:22;;;;;;;4.15;2.47;;;;;;;;;;5016907;28;20454;-82
2021/07/13 05:10:49;;;;;;;3.47;2.40;;;;;;;;;;5000940;28;20033;-83
2021/07/13 05:13:18;;;;;;;3.83;2.35;;;;;;;;;;5033513;28;20059;-89
2021/07/13 05:15:44;;;;;;;2.75;2.17;;;;;;;;;;5019020;28;20485;-92
2021/07/13 05:18:16;;;;;;;3.97;2.20;;;;;;;;;;5019486;28;20125;-90
2021/07/13 05:20:46;;;;;;;5.45;2.80;;;;;;;;;;5018919;28;20041;-91
2021/07/13 05:23:13;;;;;;;3.33;2.30;;;;;;;;;;5014654;28;20033;-90
2021/07/13 05:25:40;;;;;;;4.15;2.20;;;;;;;;;;5018714;28;20078;-88
2021/07/13 05:28:13;;;;;;;5.97;2.92;;;;;;;;;;5018478;28;20041;-88
2021/07/13 05:30:41;;;;;;;3.70;2.53;;;;;;;;;;5035642;28;20029;-88
2021/07/13 05:33:07;;;;;;;6.15;3.20;;;;;;;;;;5018298;28;20479;-89
2021/07/13 05:35:34;;;;;;;6.90;2.88;;;;;;;;;;5018515;28;20175;-89
2021/07/13 05:37:59;;;;;;;5.10;2.75;;;;;;;;;;5034789;28;20490;-90
2021/07/13 05:40:25;;;;;;;4.70;2.20;;;;;;;;;;5017927;28;20112;-89
2021/07/13 05:42:50;;;;;;;3.67;2.15;;;;;;;;;;5018105;28;20039;-90
2021/07/13 05:45:16;;;;;;;5.75;3.00;;;;;;;;;;5020155;28;20062;-90
2021/07/13 05:47:43;;;;;;;6.60;3.15;;;;;;;;;;5018377;28;20071;-88
2021/07/13 05:50:09;;;;;;;32.05;8.50;;;;;;;;;;5034835;28;20032;-88
2021/07/13 05:52:37;;;;;;;72.82;15.20;;;;;;;;;;5010017;28;20044;-87
2021/07/13 05:55:03;;;;;;;86.68;19.85;;;;;;;;;;5017957;28;20441;-86
2021/07/13 05:57:29;;;;;;;93.53;18.52;;;;;;;;;;5015722;28;20468;-88
2021/07/13 05:59:54;;;;;;;69.30;15.25;;;;;;;;;;5001668;28;20029;-87
2021/07/13 06:02:23;;;;;;;38.63;12.55;;;;;;;;;;5009139;28;20113;-89
2021/07/13 06:04:51;;;;;;;27.02;8.25;;;;;;;;;;4982731;28;20037;-89
2021/07/13 06:07:18;;;;;;;20.42;7.18;;;;;;;;;;5011125;28;20061;-89
2021/07/13 06:09:46;;;;;;;15.52;6.60;;;;;;;;;;5018614;28;20025;-89
2021/07/13 06:12:12;;;;;;;12.02;5.50;;;;;;;;;;5018675;28;20399;-89
2021/07/13 06:14:41;;;;;;;12.40;5.40;;;;;;;;;;5018368;28;20019;-89
2021/07/13 06:17:10;;;;;;;9.48;5.68;;;;;;;;;;5018797;28;20040;-89
2021/07/13 06:19:37;;;;;;;10.25;5.32;;;;;;;;;;5018226;28;20509;-89
2021/07/13 06:22:05;;;;;;;8.68;5.10;;;;;;;;;;5018192;28;20029;-88
2021/07/13 06:24:39;;;;;;;8.57;5.97;;;;;;;;;;5022566;28;20344;-91
2021/07/13 06:27:05;;;;;;;8.30;5.47;;;;;;;;;;5022571;28;20057;-90
2021/07/13 06:29:34;;;;;;;9.68;5.38;;;;;;;;;;5022153;28;20040;-90
2021/07/13 06:32:03;;;;;;;10.55;5.53;;;;;;;;;;5022085;28;20036;-90
2021/07/13 06:34:30;;;;;;;8.05;4.40;;;;;;;;;;5022292;28;20379;-87
2021/07/13 06:36:55;;;;;;;8.40;4.93;;;;;;;;;;5021394;28;20540;-90
2021/07/13 06:39:21;;;;;;;14.93;5.32;;;;;;;;;;5038105;28;20029;-90
2021/07/13 06:41:49;;;;;;;8.63;4.18;;;;;;;;;;5021201;28;20038;-90
2021/07/13 06:44:14;;;;;;;6.57;4.35;;;;;;;;;;5037836;28;20087;-92
2021/07/13 06:46:41;;;;;;;8.00;4.00;;;;;;;;;;5021796;28;20056;-91
2021/07/13 06:49:07;;;;;;;7.47;4.05;;;;;;;;;;5021723;28;20387;-90
2021/07/13 06:51:34;;;;;;;7.78;3.80;;;;;;;;;;5005314;28;20071;-89
2021/07/13 06:54:00;;;;;;;7.22;3.90;;;;;;;;;;5004624;28;20028;-92
2021/07/13 06:56:30;;;;;;;8.43;3.78;;;;;;;;;;5005011;28;20044;-92
2021/07/13 06:58:56;;;;;;;5.70;3.67;;;;;;;;;;5031976;28;20047;-91
2021/07/13 07:01:22;;;;;;;7.28;3.58;;;;;;;;;;5020649;28;20045;-92
2021/07/13 07:03:48;;;;;;;7.53;3.67;;;;;;;;;;5020424;28;20029;-90
2021/07/13 07:06:14;;;;;;;5.28;3.35;;;;;;;;;;5020529;28;20037;-91
2021/07/13 07:08:40;;;;;;;5.93;3.63;;;;;;;;;;5018614;28;20052;-90
2021/07/13 07:11:06;;;;;;;5.72;3.35;;;;;;;;;;5034058;28;20025;-92
2021/07/13 07:13:31;;;;;;;6.00;3.50;;;;;;;;;;5021426;28;21088;-90
2021/07/13 07:15:57;;;;;;;4.95;3.40;;;;;;;;;;5004314;28;20072;-91
2021/07/13 07:18:26;;;;;;;5.88;3.25;;;;;;;;;;5022130;28;20025;-92
2021/07/13 07:20:52;;;;;;;5.72;3.05;;;;;;;;;;5027653;28;20068;-91
2021/07/13 07:23:21;;;;;;;4.95;3.30;;;;;;;;;;5020413;28;20036;-91
2021/07/13 07:25:51;;;;;;;5.60;3.47;;;;;;;;;;5005479;28;20040;-92
2021/07/13 07:28:20;;;;;;;6.18;3.55;;;;;;;;;;5005285;28;20061;-91
2021/07/13 07:30:46;;;;;;;8.02;3.40;;;;;;;;;;5004937;28;20075;-90
2021/07/13 07:33:11;;;;;;;5.18;3.05;;;;;;;;;;5020767;28;20060;-91
2021/07/13 07:35:39;;;;;;;5.90;3.08;;;;;;;;;;5004657;28;20106;-91
2021/07/13 07:38:06;;;;;;;3.95;2.60;;;;;;;;;;5004716;28;20028;-91
2021/07/13 07:40:31;;;;;;;5.20;2.45;;;;;;;;;;5004477;28;20124;-91
2021/07/13 07:42:58;;;;;;;6.38;3.05;;;;;;;;;;5004635;28;20040;-91
2021/07/13 07:45:25;;;;;;;4.55;2.42;;;;;;;;;;5020784;28;20116;-92
2021/07/13 07:47:53;;;;;;;5.28;2.45;;;;;;;;;;5004223;28;20033;-91
2021/07/13 07:50:20;;;;;;;4.20;2.58;;;;;;;;;;5021232;28;20032;-91
2021/07/13 07:52:46;;;;;;;4.00;2.63;;;;;;;;;;5004389;28;20025;-91
2021/07/13 07:55:21;;;;;;;3.92;2.67;;;;;;;;;;5004678;28;20423;-90
2021/07/13 07:57:50;;;;;;;4.15;2.70;;;;;;;;;;5005060;28;20459;-91
2021/07/13 08:00:19;;;;;;;9.90;3.13;;;;;;;;;;5004266;28;20037;-92
2021/07/13 08:02:47;;;;;;;6.93;3.00;;;;;;;;;;5004181;28;20037;-92
2021/07/13 08:05:14;;;;;;;4.03;2.88;;;;;;;;;;5004088;28;20029;-91
2021/07/13 08:07:43;;;;;;;3.97;2.50;;;;;;;;;;5004206;28;20032;-92
2021/07/13 08:10:10;;;;;;;3.53;2.65;;;;;;;;;;5020376;28;20494;-91
2021/07/13 08:12:35;;;;;;;3.50;2.97;;;;;;;;;;5019192;28;20406;-91
2021/07/13 08:15:03;;;;;;;4.72;3.58;;;;;;;;;;5036657;28;20090;-91
2021/07/13 08:17:29;;;;;;;3.75;2.90;;;;;;;;;;5032859;28;20021;-91
2021/07/13 08:19:54;;;;;;;4.00;2.95;;;;;;;;;;5000399;28;20103;-90
2021/07/13 08:22:22;;;;;;;5.03;2.90;;;;;;;;;;5000231;28;20030;-90
2021/07/13 08:24:50;;;;;;;4.25;2.97;;;;;;;;;;5016836;28;20159;-90
2021/07/13 08:27:15;;;;;;;4.10;3.15;;;;;;;;;;5021918;28;20037;-89
2021/07/13 08:29:47;;;;;;;5.05;3.13;;;;;;;;;;5019913;28;20033;-91
2021/07/13 08:32:14;;;;;;;;;;;;;;;;;;5036697;28;20029;-89
2021/07/13 08:34:40;;;;;;;4.88;3.20;;;;;;;;;;5035993;28;19939;-89
2021/07/13 08:37:06;;;;;;;4.00;3.03;;;;;;;;;;5036216;28;20029;-89
2021/07/13 08:39:33;;;;;;;4.45;2.90;;;;;;;;;;5019231;28;20506;-88
2021/07/13 08:42:02;;;;;;;3.42;2.85;;;;;;;;;;5019172;28;20029;-88
2021/07/13 08:44:28;;;;;;;3.42;3.10;;;;;;;;;;5019834;28;20033;-91
2021/07/13 08:46:54;;;;;;;4.10;2.97;;;;;;;;;;5035249;28;20071;-89
2021/07/13 08:49:19;;;;;;;4.32;3.00;;;;;;;;;;5052213;28;20033;-90
2021/07/13 08:51:47;;;;;;;5.90;3.08;;;;;;;;;;5003093;28;20029;-89
2021/07/13 08:54:13;;;;;;;4.40;3.15;;;;;;;;;;5003581;28;20040;-89
2021/07/13 08:56:38;;;;;;;4.05;3.25;;;;;;;;;;5002875;28;20029;-90
2021/07/13 08:59:04;;;;;;;4.60;3.08;;;;;;;;;;5003087;28;20089;-89
2021/07/13 09:01:30;;;;;;;4.22;3.22;;;;;;;;;;5002348;28;20115;-90
2021/07/13 09:03:57;;;;;;;4.70;2.92;;;;;;;;;;5002783;28;20033;-90
2021/07/13 09:06:23;;;;;;;3.65;3.03;;;;;;;;;;5002342;28;20567;-90
2021/07/13 09:08:51;;;;;;;4.03;3.13;;;;;;;;;;5002205;28;20060;-90
2021/07/13 09:11:17;;;;;;;4.40;2.97;;;;;;;;;;5002723;28;20509;-90
2021/07/13 09:13:50;;;;;;;3.83;3.08;;;;;;;;;;5019133;28;20025;-92
2021/07/13 09:16:17;;;;;;;3.95;3.10;;;;;;;;;;5002490;28;20029;-89
2021/07/13 09:18:45;;;;;;;4.28;3.38;;;;;;;;;;5018938;28;20437;-91
2021/07/13 09:21:38;;;;;;;3.63;2.75;;;;;;;;;;5040453;28;20078;-89
2021/07/13 09:24:17;;;;;;;5.75;3.40;;;;;;;;;;5019918;28;20467;-90
2021/07/13 09:26:48;;;;;;;4.80;3.83;;;;;;;;;;5002327;28;20033;-91
2021/07/13 09:29:34;;;;;;;4.55;3.45;;;;;;;;;;5034972;28;20028;-90
2021/07/13 09:32:16;;;;;;;5.05;3.90;;;;;;;;;;5018486;28;20037;-90
2021/07/13 09:34:55;;;;;;;4.65;4.00;;;;;;;;;;5018776;28;20079;-84
2021/07/13 09:37:27;;;;;;;4.75;4.10;;;;;;;;;;5003171;28;20433;-87
2021/07/13 09:39:55;;;;;;;;;;;;;;;;;;5019210;28;20028;-87
2021/07/13 09:42:28;;;;;;;4.95;4.43;;;;;;;;;;5051896;28;20046;-87
2021/07/13 09:45:14;;;;;;;7.65;6.80;;;;;;;;;;5001711;28;20068;-87
2021/07/13 09:47:43;;;;;;;6.47;4.90;;;;;;;;;;5018015;28;20406;-86
2021/07/13 09:50:09;;;;;;;5.43;4.93;;;;;;;;;;5026687;28;20041;-86
2021/07/13 09:52:35;;;;;;;6.28;5.40;;;;;;;;;;5001981;28;20056;-86
2021/07/13 09:55:12;;;;;;;8.55;7.78;;;;;;;;;;5002154;28;20378;-86
2021/07/13 09:57:38;;;;;;;15.93;13.60;;;;;;;;;;5033874;28;20035;-86
2021/07/13 10:00:05;;;;;;;16.58;14.88;;;;;;;;;;5008123;28;20033;-86
2021/07/13 10:02:32;;;;;;;17.38;15.57;;;;;;;;;;5001555;28;20568;-86
2021/07/13 10:04:58;;;;;;;16.45;14.85;;;;;;;;;;5001688;28;20166;-86
2021/07/13 10:07:25;;;;;;;17.75;15.95;;;;;;;;;;4998020;28;20108;-86
2021/07/13 10:09:52;;;;;;;15.55;14.13;;;;;;;;;;5017983;28;20031;-86
2021/07/13 10:12:23;;;;;;;17.10;15.50;;;;;;;;;;5001874;28;20033;-85
2021/07/13 10:14:56;;;;;;;17.42;15.82;;;;;;;;;;5019074;28;20114;-85
2021/07/13 10:17:27;;;;;;;16.58;15.00;;;;;;;;;;5002759;28;20044;-86
2021/07/13 10:20:00;;;;;;;16.95;15.25;;;;;;;;;;5001639;28;20040;-85
2021/07/13 10:22:29;;;;;;;16.42;14.93;;;;;;;;;;5002024;28;20029;-86
2021/07/13 10:24:57;;;;;;;15.93;14.43;;;;;;;;;;5050747;28;20037;-86
2021/07/13 10:27:36;;;;;;;13.70;12.38;;;;;;;;;;5001749;28;20033;-85
2021/07/13 10:30:08;;;;;;;15.88;14.38;;;;;;;;;;5034301;28;20032;-85
2021/07/13 10:32:40;;;;;;;14.82;13.43;;;;;;;;;;5017707;28;20159;-85
2021/07/13 10:35:31;;;;;;;14.88;13.48;;;;;;;;;;5018621;28;20479;-85
2021/07/13 10:37:59;;;;;;;16.20;14.57;;;;;;;;;;5014517;28;20045;-84
2021/07/13 10:40:25;;;;;;;14.65;13.15;;;;;;;;;;5017634;28;20025;-85
2021/07/13 10:42:54;;;;;;;15.30;13.88;;;;;;;;;;5050354;28;20065;-84
2021/07/13 10:45:29;;;;;;;15.20;13.70;;;;;;;;;;5050158;28;20029;-84
2021/07/13 10:48:13;;;;;;;16.05;14.38;;;;;;;;;;5017366;28;20163;-84
2021/07/13 10:50:48;;;;;;;14.88;13.38;;;;;;;;;;5013747;28;20494;-84
2021/07/13 10:53:42;;;;;;;13.63;12.27;;;;;;;;;;5030383;28;20077;-85
2021/07/13 10:56:13;;;;;;;12.57;11.27;;;;;;;;;;4998116;28;20029;-85
2021/07/13 10:58:45;;;;;;;10.68;9.60;;;;;;;;;;5030615;28;20530;-85
2021/07/13 11:01:11;;;;;;;;;;;;;;;;;;5018450;28;20036;-84
2021/07/13 11:03:38;;;;;;;9.60;8.70;;;;;;;;;;5033597;28;19913;-84
2021/07/13 11:06:08;;;;;;;9.68;8.68;;;;;;;;;;5033342;28;20025;-84
2021/07/13 11:11:08;;;;;;;9.60;7.90;;;;;;;;;;5053512;28;20090;-85
2021/07/13 11:13:33;;;;;;;8.88;7.97;;;;;;;;;;5020542;28;20127;-84
2021/07/13 11:15:59;;;;;;;9.95;8.35;;;;;;;;;;5004438;28;20136;-85
2021/07/13 11:18:26;;;;;;;8.25;7.45;;;;;;;;;;5003800;28;20028;-84
2021/07/13 11:20:51;;;;;;;8.25;7.38;;;;;;;;;;5004143;28;20033;-84
2021/07/13 11:23:27;;;;;;;7.80;6.93;;;;;;;;;;5003813;28;20111;-83
2021/07/13 11:26:03;;;;;;;7.57;6.88;;;;;;;;;;5020138;28;20082;-84
2021/07/13 11:28:29;;;;;;;8.95;8.05;;;;;;;;;;5004486;28;20029;-85
2021/07/13 11:30:55;;;;;;;9.40;8.43;;;;;;;;;;5003946;28;20033;-84
2021/07/13 11:33:25;;;;;;;9.93;8.90;;;;;;;;;;5020129;28;20032;-85
2021/07/13 11:35:56;;;;;;;9.50;8.50;;;;;;;;;;5003577;28;20441;-84
2021/07/13 11:38:30;;;;;;;8.40;7.60;;;;;;;;;;5010067;28;20501;-85
2021/07/13 11:41:14;;;;;;;8.18;7.35;;;;;;;;;;5019343;28;20041;-85
2021/07/13 11:43:40;;;;;;;9.27;8.27;;;;;;;;;;5016753;28;20080;-85
2021/07/13 11:46:18;;;;;;;10.57;8.98;;;;;;;;;;5016660;28;20022;-84
2021/07/13 11:49:04;;;;;;;7.85;6.72;;;;;;;;;;5027640;28;20037;-84
2021/07/13 11:51:49;;;;;;;8.40;7.47;;;;;;;;;;5019519;28;20051;-84
2021/07/13 11:54:15;;;;;;;11.02;7.47;;;;;;;;;;5021434;28;20025;-84
2021/07/13 11:56:45;;;;;;;7.15;6.45;;;;;;;;;;5018658;28;20025;-84
2021/07/13 11:59:20;;;;;;;9.50;6.55;;;;;;;;;;5036382;28;20032;-84
2021/07/13 12:01:50;;;;;;;7.45;6.75;;;;;;;;;;5035804;28;20021;-85
2021/07/13 12:04:17;;;;;;;11.18;6.20;;;;;;;;;;5036145;28;20082;-85
2021/07/13 12:06:42;;;;;;;8.23;6.57;;;;;;;;;;5035692;28;20103;-86
2021/07/13 12:09:12;;;;;;;9.13;7.40;;;;;;;;;;5007109;28;20115;-85
2021/07/13 12:11:44;;;;;;;8.43;7.63;;;;;;;;;;5002107;28;20036;-85
2021/07/13 12:14:15;;;;;;;7.28;6.63;;;;;;;;;;4983967;28;20465;-85
2021/07/13 12:16:41;;;;;;;7.72;6.93;;;;;;;;;;4983560;28;20037;-85
2021/07/13 12:19:24;;;;;;;9.70;8.70;;;;;;;;;;4998743;28;20502;-85
2021/07/13 12:21:56;;;;;;;9.10;8.20;;;;;;;;;;5003796;28;20060;-87
2021/07/13 12:24:36;;;;;;;11.23;10.10;;;;;;;;;;5043836;28;20037;-87
2021/07/13 12:27:03;;;;;;;13.43;11.95;;;;;;;;;;5032513;28;20112;-87
2021/07/13 12:29:31;;;;;;;12.95;11.57;;;;;;;;;;5016897;28;20056;-87
2021/07/13 12:31:57;;;;;;;14.25;12.48;;;;;;;;;;5034664;28;20025;-87
2021/07/13 12:34:28;;;;;;;10.85;9.75;;;;;;;;;;5018891;28;20040;-86
2021/07/13 12:37:10;;;;;;;11.02;9.90;;;;;;;;;;5019798;28;20040;-87
2021/07/13 12:39:38;;;;;;;12.93;10.73;;;;;;;;;;5034978;28;20052;-87
2021/07/13 12:42:03;;;;;;;13.02;11.52;;;;;;;;;;5019126;28;20059;-87
2021/07/13 12:44:33;;;;;;;11.38;10.20;;;;;;;;;;5048250;28;20033;-88
2021/07/13 12:47:19;;;;;;;13.02;10.75;;;;;;;;;;4989990;28;20025;-88
2021/07/13 12:49:58;;;;;;;11.25;10.15;;;;;;;;;;4998583;28;20035;-87
2021/07/13 12:52:33;;;;;;;10.85;9.85;;;;;;;;;;5029120;28;20466;-87
2021/07/13 12:55:21;;;;;;;10.82;9.73;;;;;;;;;;5014908;28;20095;-86
2021/07/13 12:57:50;;;;;;;9.93;8.93;;;;;;;;;;5004654;28;20159;-87
2021/07/13 13:00:20;;;;;;;11.40;10.20;;;;;;;;;;5007805;28;20025;-87
2021/07/13 13:03:02;;;;;;;9.88;8.93;;;;;;;;;;5005674;28;20048;-87
2021/07/13 13:05:35;;;;;;;10.90;9.43;;;;;;;;;;5039853;28;20502;-87
2021/07/13 13:08:11;;;;;;;10.25;9.15;;;;;;;;;;5002296;28;20056;-87
2021/07/13 13:10:42;;;;;;;9.43;8.25;;;;;;;;;;5017935;28;20029;-87
2021/07/13 13:13:07;;;;;;;9.70;8.48;;;;;;;;;;5067544;28;20028;-87
2021/07/13 13:15:33;;;;;;;8.60;7.72;;;;;;;;;;5034540;28;20487;-87
2021/07/13 13:17:58;;;;;;;9.32;8.43;;;;;;;;;;5060167;28;20515;-84
2021/07/13 13:20:24;;;;;;;8.32;7.53;;;;;;;;;;5030906;28;20039;-84
2021/07/13 13:22:55;;;;;;;9.05;8.15;;;;;;;;;;5043132;28;20060;-84
2021/07/13 13:25:20;;;;;;;9.43;8.30;;;;;;;;;;5018273;28;20479;-83
2021/07/13 13:27:46;;;;;;;7.55;6.85;;;;;;;;;;5030601;28;20033;-83
2021/07/13 13:30:12;;;;;;;7.85;6.82;;;;;;;;;;5044988;28;20068;-83
2021/07/13 13:32:38;;;;;;;7.93;7.22;;;;;;;;;;5016697;28;20059;-83
2021/07/13 13:35:06;;;;;;;7.68;6.95;;;;;;;;;;5033821;28;20095;-83
2021/07/13 13:37:46;;;;;;;7.20;6.53;;;;;;;;;;5033923;28;20029;-83
2021/07/13 13:40:11;;;;;;;6.85;6.25;;;;;;;;;;5020949;28;20028;-83
2021/07/13 13:42:37;;;;;;;8.13;7.32;;;;;;;;;;5017464;28;20029;-81
2021/07/13 13:45:02;;;;;;;6.50;5.90;;;;;;;;;;5013271;28;20099;-82
2021/07/13 13:47:32;;;;;;;6.00;5.43;;;;;;;;;;5049456;28;20025;-83
2021/07/13 13:49:57;;;;;;;6.43;5.53;;;;;;;;;;5017430;28;20044;-83
2021/07/13 13:52:23;;;;;;;7.25;6.55;;;;;;;;;;5017694;28;20390;-83
2021/07/13 13:54:48;;;;;;;6.63;6.03;;;;;;;;;;5013463;28;20467;-83
2021/07/13 13:57:14;;;;;;;8.05;7.25;;;;;;;;;;5032245;28;20478;-83
2021/07/13 13:59:39;;;;;;;10.07;8.27;;;;;;;;;;5050291;28;20029;-82
2021/07/13 14:02:05;;;;;;;11.65;8.85;;;;;;;;;;5016421;28;20021;-82
2021/07/13 14:04:30;;;;;;;11.13;8.95;;;;;;;;;;5033094;28;20033;-82
2021/07/13 14:06:58;;;;;;;9.02;7.75;;;;;;;;;;5015069;28;20032;-82
2021/07/13 14:09:24;;;;;;;9.40;8.05;;;;;;;;;;5016871;28;20071;-83
2021/07/13 14:11:49;;;;;;;13.40;9.32;;;;;;;;;;5016747;28;20033;-83
2021/07/13 14:14:17;;;;;;;9.75;8.23;;;;;;;;;;5017071;28;20025;-83
2021/07/13 14:16:43;;;;;;;10.98;9.18;;;;;;;;;;5017243;28;20128;-82
2021/07/13 14:19:08;;;;;;;10.57;8.57;;;;;;;;;;5016261;28;20116;-82
2021/07/13 14:21:34;;;;;;;9.63;8.25;;;;;;;;;;5016914;28;20104;-82
2021/07/13 14:23:59;;;;;;;8.55;7.65;;;;;;;;;;5013250;28;20415;-82
2021/07/13 14:26:25;;;;;;;9.25;7.82;;;;;;;;;;5013776;28;20052;-82
2021/07/13 14:28:50;;;;;;;8.93;8.02;;;;;;;;;;5013511;28;20057;-82
2021/07/13 14:31:17;;;;;;;9.00;7.13;;;;;;;;;;5029908;28;20046;-82
2021/07/13 14:33:42;;;;;;;7.80;6.57;;;;;;;;;;5029746;28;20079;-83
2021/07/13 14:36:08;;;;;;;8.38;6.85;;;;;;;;;;5029863;28;20376;-82
2021/07/13 14:38:33;;;;;;;8.95;6.00;;;;;;;;;;5049521;28;20525;-82
2021/07/13 14:40:59;;;;;;;7.90;5.80;;;;;;;;;;5049401;28;20036;-83
2021/07/13 14:43:24;;;;;;;6.88;5.70;;;;;;;;;;5000418;28;20039;-83
2021/07/13 14:45:51;;;;;;;7.63;5.88;;;;;;;;;;5053550;28;20036;-82
2021/07/13 14:48:16;;;;;;;6.60;5.78;;;;;;;;;;5036252;28;20044;-82
2021/07/13 14:50:46;;;;;;;6.88;5.72;;;;;;;;;;5035714;28;20395;-82
2021/07/13 14:53:15;;;;;;;6.65;5.22;;;;;;;;;;5001323;28;20053;-82